createdAt,value
2019-01-24T00:01:26.962Z,51.67
2019-01-24T00:03:57.112Z,53.93
2019-01-24T00:06:27.297Z,56.03
2019-01-24T00:08:57.544Z,52.23
2019-01-24T00:11:27.867Z,54.80
2019-01-24T00:13:58.102Z,53.97
2019-01-24T00:16:28.371Z,52.83
2019-01-24T00:18:58.595Z,50.07
2019-01-24T00:21:28.841Z,51.88
2019-01-24T00:23:59.158Z,51.97
2019-01-24T00:26:29.428Z,52.53
2019-01-24T00:28:59.696Z,50.00
2019-01-24T00:31:30.010Z,56.58
2019-01-24T00:34:00.277Z,58.43
2019-01-24T00:36:30.522Z,49.80
2019-01-24T00:39:00.898Z,52.03
2019-01-24T00:41:31.131Z,50.57
2019-01-24T00:44:01.406Z,51.90
2019-01-24T00:46:31.862Z,52.27
2019-01-24T00:49:02.116Z,54.83
2019-01-24T00:51:34.098Z,54.40
2019-01-24T00:54:04.693Z,46.90
2019-01-24T00:56:34.930Z,54.80
2019-01-24T00:59:05.230Z,56.20
2019-01-24T01:01:35.485Z,47.23
2019-01-24T01:04:06.764Z,51.75
2019-01-24T01:06:36.920Z,54.37
2019-01-24T01:09:10.168Z,50.47
2019-01-24T01:11:40.407Z,55.27
2019-01-24T01:14:10.719Z,51.17
2019-01-24T01:16:41.047Z,53.43
2019-01-24T01:19:11.286Z,55.40
2019-01-24T01:21:41.553Z,48.37
2019-01-24T01:24:11.860Z,53.50
2019-01-24T01:26:43.612Z,53.90
2019-01-24T01:29:13.863Z,49.07
2019-01-24T01:31:44.119Z,52.20
2019-01-24T01:34:14.469Z,49.60
2019-01-24T01:36:48.390Z,49.88
2019-01-24T01:39:18.614Z,49.80
2019-01-24T01:41:48.878Z,52.20
2019-01-24T01:44:19.127Z,53.53
2019-01-24T01:46:49.287Z,52.17
2019-01-24T01:49:19.540Z,55.03
2019-01-24T01:51:49.870Z,50.30
2019-01-24T01:54:20.155Z,54.27
2019-01-24T01:56:50.375Z,50.00
2019-01-24T01:59:20.635Z,52.43
2019-01-24T02:01:51.049Z,57.43
2019-01-24T02:04:25.324Z,55.92
2019-01-24T02:06:58.604Z,54.00
2019-01-24T02:09:28.981Z,49.50
2019-01-24T02:11:59.275Z,51.50
2019-01-24T02:14:29.580Z,51.60
2019-01-24T02:17:00.155Z,49.57
2019-01-24T02:19:30.754Z,49.27
2019-01-24T02:22:14.586Z,50.03
2019-01-24T02:24:50.937Z,50.90
2019-01-24T02:27:21.489Z,49.83
2019-01-24T02:29:51.831Z,52.70
2019-01-24T02:32:26.580Z,47.93
2019-01-24T02:34:57.021Z,46.60
2019-01-24T02:37:27.420Z,52.93
2019-01-24T02:39:57.684Z,52.57
2019-01-24T02:42:28.192Z,53.13
2019-01-24T02:44:58.580Z,47.43
2019-01-24T02:47:29.017Z,48.57
2019-01-24T02:50:00.249Z,49.57
2019-01-24T02:52:30.700Z,47.40
2019-01-24T02:55:01.097Z,49.30
2019-01-24T02:57:31.593Z,52.37
2019-01-24T03:00:01.981Z,53.47
2019-01-24T03:02:32.318Z,54.23
2019-01-24T03:05:02.761Z,53.30
2019-01-24T03:07:33.323Z,53.07
2019-01-24T03:10:03.959Z,50.67
2019-01-24T03:12:34.526Z,51.53
2019-01-24T03:15:06.160Z,48.13
2019-01-24T03:17:36.715Z,49.33
2019-01-24T03:20:07.989Z,50.03
2019-01-24T03:22:38.274Z,53.50
2019-01-24T03:25:09.749Z,51.13
2019-01-24T03:27:40.032Z,47.65
2019-01-24T03:30:14.371Z,51.83
2019-01-24T03:32:44.615Z,48.03
2019-01-24T03:35:20.137Z,51.93
2019-01-24T03:37:50.457Z,52.17
2019-01-24T03:40:20.746Z,51.03
2019-01-24T03:42:51.087Z,48.60
2019-01-24T03:45:21.400Z,55.47
2019-01-24T03:47:51.664Z,51.10
2019-01-24T03:50:23.383Z,54.75
2019-01-24T03:52:53.787Z,47.67
2019-01-24T03:55:24.629Z,49.08
2019-01-24T03:57:54.869Z,55.47
2019-01-24T04:00:26.397Z,50.13
2019-01-24T04:02:56.645Z,53.53
2019-01-24T04:05:26.838Z,55.17
2019-01-24T04:07:56.998Z,53.57
2019-01-24T04:10:27.199Z,53.13
2019-01-24T04:12:57.511Z,53.40
2019-01-24T04:15:28.165Z,45.23
2019-01-24T04:17:58.388Z,53.63
2019-01-24T04:20:28.631Z,49.77
2019-01-24T04:22:58.898Z,53.23
2019-01-24T04:25:29.102Z,50.83
2019-01-24T04:27:59.264Z,53.53
2019-01-24T04:30:29.617Z,55.33
2019-01-24T04:32:59.780Z,52.90
2019-01-24T04:35:30.095Z,53.03
2019-01-24T04:38:00.318Z,54.27
2019-01-24T04:40:30.668Z,56.53
2019-01-24T04:43:00.941Z,55.30
2019-01-24T04:45:31.216Z,56.53
2019-01-24T04:48:01.511Z,49.00
2019-01-24T04:50:31.715Z,51.10
2019-01-24T04:53:02.062Z,51.80
2019-01-24T04:55:32.301Z,53.27
2019-01-24T04:58:02.483Z,48.50
2019-01-24T05:00:33.085Z,52.70
2019-01-24T05:03:03.335Z,52.90
2019-01-24T05:05:33.532Z,45.67
2019-01-24T05:08:03.911Z,48.53
2019-01-24T05:10:34.201Z,54.67
2019-01-24T05:13:04.506Z,52.67
2019-01-24T05:15:34.743Z,53.87
2019-01-24T05:18:05.054Z,52.90
2019-01-24T05:20:35.213Z,54.03
2019-01-24T05:23:05.440Z,49.10
2019-01-24T05:25:35.653Z,51.50
2019-01-24T05:28:07.215Z,52.80
2019-01-24T05:30:37.465Z,53.30
2019-01-24T05:33:07.737Z,48.47
2019-01-24T05:35:37.907Z,55.83
2019-01-24T05:38:08.195Z,54.70
2019-01-24T05:40:38.605Z,55.97
2019-01-24T05:43:10.376Z,51.97
2019-01-24T05:45:41.075Z,54.50
2019-01-24T05:48:11.693Z,57.27
2019-01-24T05:50:44.320Z,50.15
2019-01-24T05:53:14.488Z,52.55
2019-01-24T05:55:44.886Z,57.43
2019-01-24T05:58:15.212Z,53.97
2019-01-24T06:00:46.649Z,53.43
2019-01-24T06:03:19.561Z,54.93
2019-01-24T06:05:49.835Z,51.90
2019-01-24T06:08:23.238Z,53.10
2019-01-24T06:10:53.457Z,53.63
2019-01-24T06:13:23.710Z,52.08
2019-01-24T06:15:53.998Z,53.43
2019-01-24T06:18:24.235Z,54.70
2019-01-24T06:20:54.522Z,54.47
2019-01-24T06:23:24.820Z,49.57
2019-01-24T06:25:55.207Z,56.40
2019-01-24T06:28:25.421Z,58.97
2019-01-24T06:30:55.704Z,57.75
2019-01-24T06:33:25.950Z,58.73
2019-01-24T06:35:56.181Z,58.47
2019-01-24T06:38:26.448Z,55.13
2019-01-24T06:40:56.797Z,59.15
2019-01-24T06:43:27.041Z,54.60
2019-01-24T06:45:57.267Z,55.47
2019-01-24T06:48:27.574Z,58.20
2019-01-24T06:50:57.852Z,53.60
2019-01-24T06:53:28.117Z,56.80
2019-01-24T06:55:58.268Z,55.97
2019-01-24T06:58:28.516Z,57.83
2019-01-24T07:00:58.772Z,56.13
2019-01-24T07:03:28.913Z,51.90
2019-01-24T07:05:59.172Z,54.40
2019-01-24T07:08:29.339Z,53.10
2019-01-24T07:10:59.582Z,54.47
2019-01-24T07:13:29.826Z,56.97
2019-01-24T07:16:00.139Z,53.43
2019-01-24T07:18:30.391Z,51.60
2019-01-24T07:21:01.000Z,53.50
2019-01-24T07:23:31.382Z,57.50
2019-01-24T07:26:01.537Z,49.97
2019-01-24T07:28:31.785Z,58.23
2019-01-24T07:31:02.063Z,51.87
2019-01-24T07:33:32.343Z,55.97
2019-01-24T07:36:02.776Z,55.20
2019-01-24T07:38:35.080Z,51.23
2019-01-24T07:41:05.140Z,54.33
2019-01-24T07:43:35.404Z,49.43
2019-01-24T07:46:07.547Z,55.82
2019-01-24T07:48:38.168Z,51.17
2019-01-24T07:51:08.441Z,55.63
2019-01-24T07:53:38.683Z,52.67
2019-01-24T07:56:08.963Z,52.50
2019-01-24T07:58:39.243Z,53.83
2019-01-24T08:01:09.503Z,53.73
2019-01-24T08:03:39.739Z,55.83
2019-01-24T08:06:09.988Z,58.10
2019-01-24T08:08:40.238Z,55.97
2019-01-24T08:11:10.473Z,55.27
2019-01-24T08:13:40.726Z,51.90
2019-01-24T08:16:11.074Z,55.80
2019-01-24T08:18:41.355Z,59.07
2019-01-24T08:21:11.716Z,56.73
2019-01-24T08:23:42.263Z,55.17
2019-01-24T08:26:12.606Z,51.43
2019-01-24T08:28:43.126Z,55.43
2019-01-24T08:31:13.351Z,55.70
2019-01-24T08:33:43.539Z,49.63
2019-01-24T08:36:15.635Z,55.33
2019-01-24T08:38:45.932Z,53.37
2019-01-24T08:41:16.232Z,47.83
2019-01-24T08:43:46.597Z,50.27
2019-01-24T08:46:16.874Z,53.73
2019-01-24T08:48:47.065Z,52.57
2019-01-24T08:51:17.311Z,53.78
2019-01-24T08:53:47.653Z,52.97
2019-01-24T08:56:18.105Z,50.05
2019-01-24T08:58:48.476Z,53.23
2019-01-24T09:01:18.780Z,47.57
2019-01-24T09:03:49.082Z,55.73
2019-01-24T09:06:22.651Z,52.63
2019-01-24T09:08:51.367Z,49.47
2019-01-24T09:11:21.791Z,54.50
2019-01-24T09:13:52.108Z,49.83
2019-01-24T09:16:22.460Z,48.33
2019-01-24T09:18:52.758Z,49.83
2019-01-24T09:21:23.044Z,51.43
2019-01-24T09:23:53.451Z,49.80
2019-01-24T09:26:23.758Z,51.37
2019-01-24T09:28:54.081Z,54.23
2019-01-24T09:31:24.428Z,52.57
2019-01-24T09:33:54.874Z,52.07
2019-01-24T09:36:29.171Z,50.25
2019-01-24T09:38:57.368Z,52.93
2019-01-24T09:41:28.595Z,52.07
2019-01-24T09:43:59.016Z,53.40
2019-01-24T09:46:29.424Z,52.37
2019-01-24T09:48:59.827Z,51.87
2019-01-24T09:51:30.140Z,47.57
2019-01-24T09:54:00.430Z,51.83
2019-01-24T09:56:30.757Z,51.53
2019-01-24T09:59:01.488Z,52.37
2019-01-24T10:01:31.746Z,52.03
2019-01-24T10:04:02.190Z,50.10
2019-01-24T10:06:36.237Z,52.27
2019-01-24T10:09:06.586Z,52.23
2019-01-24T10:11:36.736Z,46.13
2019-01-24T10:14:07.479Z,48.95
2019-01-24T10:16:37.823Z,49.50
2019-01-24T10:19:08.039Z,49.77
2019-01-24T10:21:38.349Z,50.63
2019-01-24T10:24:08.696Z,51.23
2019-01-24T10:26:39.200Z,51.97
2019-01-24T10:29:09.663Z,50.73
2019-01-24T10:31:39.988Z,49.08
2019-01-24T10:34:10.357Z,47.20
2019-01-24T10:36:43.103Z,52.17
2019-01-24T10:39:14.374Z,51.00
2019-01-24T10:41:44.622Z,51.63
2019-01-24T10:44:14.938Z,46.75
2019-01-24T10:46:45.173Z,48.97
2019-01-24T10:49:15.415Z,47.00
2019-01-24T10:51:45.698Z,46.63
2019-01-24T10:54:15.956Z,49.25
2019-01-24T10:56:46.162Z,51.80
2019-01-24T10:59:16.408Z,46.00
2019-01-24T11:01:46.742Z,53.87
2019-01-24T11:04:17.055Z,50.83
2019-01-24T11:06:50.104Z,52.43
2019-01-24T11:09:19.549Z,49.00
2019-01-24T11:11:49.818Z,48.10
2019-01-24T11:14:20.046Z,43.27
2019-01-24T11:16:50.312Z,48.83
2019-01-24T11:19:20.718Z,42.05
2019-01-24T11:21:51.043Z,47.50
2019-01-24T11:24:21.362Z,50.53
2019-01-24T11:26:51.740Z,48.47
2019-01-24T11:29:22.021Z,51.40
2019-01-24T11:31:52.278Z,48.33
2019-01-24T11:34:22.530Z,46.18
2019-01-24T11:36:57.033Z,49.20
2019-01-24T11:39:24.764Z,47.83
2019-01-24T11:41:55.076Z,49.43
2019-01-24T11:44:25.277Z,50.47
2019-01-24T11:46:55.542Z,50.67
2019-01-24T11:49:25.863Z,50.47
2019-01-24T11:51:56.208Z,43.43
2019-01-24T11:54:26.457Z,48.60
2019-01-24T11:56:56.769Z,49.10
2019-01-24T11:59:27.076Z,46.43
2019-01-24T12:01:57.309Z,45.93
2019-01-24T12:07:04.125Z,46.30
2019-01-24T12:09:32.232Z,51.97
2019-01-24T12:12:02.627Z,49.50
2019-01-24T12:14:32.935Z,49.50
2019-01-24T12:17:03.236Z,49.63
2019-01-24T12:19:33.491Z,48.90
2019-01-24T12:22:03.785Z,45.97
2019-01-24T12:24:33.921Z,49.53
2019-01-24T12:27:04.238Z,47.87
2019-01-24T12:29:34.477Z,47.73
2019-01-24T12:32:04.863Z,47.60
2019-01-24T12:34:35.101Z,49.60
2019-01-24T12:37:11.278Z,49.27
2019-01-24T12:39:38.638Z,50.57
2019-01-24T12:42:08.953Z,52.43
2019-01-24T12:44:39.253Z,50.33
2019-01-24T12:47:09.527Z,48.70
2019-01-24T12:49:41.524Z,50.33
2019-01-24T12:52:11.802Z,52.35
2019-01-24T12:54:42.057Z,50.47
2019-01-24T12:57:12.328Z,51.60
2019-01-24T12:59:42.693Z,48.87
2019-01-24T13:02:12.961Z,50.40
2019-01-24T13:04:43.328Z,45.57
2019-01-24T13:07:18.388Z,48.08
2019-01-24T13:09:45.525Z,47.90
2019-01-24T13:12:15.671Z,49.00
2019-01-24T13:14:45.778Z,47.27
2019-01-24T13:17:16.047Z,50.83
2019-01-24T13:19:46.230Z,46.60
2019-01-24T13:22:16.519Z,50.20
2019-01-24T13:24:46.761Z,43.73
2019-01-24T13:27:17.020Z,46.10
2019-01-24T13:29:47.200Z,46.90
2019-01-24T13:32:17.484Z,47.40
2019-01-24T13:34:47.698Z,46.83
2019-01-24T13:37:17.926Z,48.08
2019-01-24T13:39:48.163Z,43.50
2019-01-24T13:42:18.446Z,45.48
2019-01-24T13:44:48.782Z,46.67
2019-01-24T13:47:18.908Z,47.95
2019-01-24T13:49:49.178Z,48.80
2019-01-24T13:52:19.342Z,42.83
2019-01-24T13:54:49.722Z,47.50
2019-01-24T13:57:22.049Z,46.40
2019-01-24T13:59:54.875Z,49.07
2019-01-24T14:02:24.383Z,41.93
2019-01-24T14:04:54.676Z,50.63
2019-01-24T14:07:24.965Z,50.75
2019-01-24T14:09:55.204Z,49.87
2019-01-24T14:12:25.472Z,46.70
2019-01-24T14:14:55.619Z,51.77
2019-01-24T14:17:25.871Z,48.17
2019-01-24T14:19:56.112Z,46.73
2019-01-24T14:22:26.280Z,47.97
2019-01-24T14:24:56.591Z,47.30
2019-01-24T14:27:26.823Z,48.17
2019-01-24T14:29:57.098Z,50.17
2019-01-24T14:32:27.633Z,54.00
2019-01-24T14:34:57.791Z,48.27
2019-01-24T14:37:28.037Z,50.17
2019-01-24T14:39:58.239Z,49.77
2019-01-24T14:42:28.391Z,47.67
2019-01-24T14:44:58.540Z,51.73
2019-01-24T14:47:28.854Z,48.70
2019-01-24T14:49:58.955Z,49.43
2019-01-24T14:52:29.305Z,53.70
2019-01-24T14:54:59.584Z,51.83
2019-01-24T14:57:29.933Z,51.13
2019-01-24T15:00:00.222Z,50.30
2019-01-24T15:02:30.541Z,50.37
2019-01-24T15:05:00.657Z,50.10
2019-01-24T15:07:31.088Z,49.53
2019-01-24T15:10:01.278Z,50.40
2019-01-24T15:12:31.607Z,49.13
2019-01-24T15:15:01.852Z,48.60
2019-01-24T15:17:32.200Z,52.30
2019-01-24T15:20:02.367Z,47.60
2019-01-24T15:22:32.518Z,49.73
2019-01-24T15:25:02.718Z,48.17
2019-01-24T15:27:32.969Z,49.40
2019-01-24T15:30:03.325Z,53.10
2019-01-24T15:32:34.316Z,47.83
2019-01-24T15:35:05.208Z,52.23
2019-01-24T15:37:35.502Z,48.30
2019-01-24T15:40:09.122Z,50.47
2019-01-24T15:42:39.452Z,48.97
2019-01-24T15:45:12.131Z,49.30
2019-01-24T15:47:42.301Z,47.30
2019-01-24T15:50:14.424Z,53.78
2019-01-24T15:52:44.734Z,48.23
2019-01-24T15:55:15.297Z,52.57
2019-01-24T15:57:45.646Z,49.73
2019-01-24T16:00:29.032Z,52.33
2019-01-24T16:02:59.354Z,50.73
2019-01-24T16:05:29.727Z,54.33
2019-01-24T16:08:01.896Z,46.63
2019-01-24T16:10:32.311Z,56.17
2019-01-24T16:13:02.707Z,55.53
2019-01-24T16:15:35.599Z,51.63
2019-01-24T16:18:10.410Z,52.62
2019-01-24T16:20:42.263Z,53.10
2019-01-24T16:23:12.652Z,53.17
2019-01-24T16:25:43.128Z,51.73
2019-01-24T16:28:16.175Z,52.80
2019-01-24T16:30:46.591Z,50.73
2019-01-24T16:33:17.005Z,45.50
2019-01-24T16:35:47.333Z,49.97
2019-01-24T16:38:20.615Z,51.98
2019-01-24T16:40:50.907Z,54.67
2019-01-24T16:43:24.117Z,45.03
2019-01-24T16:45:54.491Z,55.13
2019-01-24T16:48:24.792Z,52.97
2019-01-24T16:50:55.041Z,54.80
2019-01-24T16:53:25.419Z,52.03
2019-01-24T16:55:59.492Z,54.37
2019-01-24T16:58:29.768Z,56.43
2019-01-24T17:01:13.520Z,56.10
2019-01-24T17:03:45.545Z,54.70
2019-01-24T17:06:15.875Z,46.75
2019-01-24T17:08:47.497Z,52.43
2019-01-24T17:11:17.850Z,51.63
2019-01-24T17:13:48.132Z,51.00
2019-01-24T17:16:18.505Z,50.23
2019-01-24T17:18:48.925Z,51.30
2019-01-24T17:21:20.920Z,50.90
2019-01-24T17:23:51.165Z,48.57
2019-01-24T17:26:21.376Z,51.53
2019-01-24T17:28:51.626Z,49.50
2019-01-24T17:31:21.908Z,50.03
2019-01-24T17:33:52.255Z,48.87
2019-01-24T17:36:22.573Z,50.37
2019-01-24T17:38:52.782Z,50.90
2019-01-24T17:41:23.150Z,50.90
2019-01-24T17:43:55.013Z,51.17
2019-01-24T17:46:25.786Z,53.95
2019-01-24T17:48:58.378Z,47.10
2019-01-24T17:51:29.114Z,47.70
2019-01-24T17:53:59.510Z,47.83
2019-01-24T17:56:29.869Z,48.57
2019-01-24T17:59:00.237Z,50.23
2019-01-24T18:01:30.603Z,49.67
2019-01-24T18:04:00.903Z,53.03
2019-01-24T18:06:31.248Z,48.53
2019-01-24T18:09:01.597Z,47.73
2019-01-24T18:11:31.874Z,46.47
2019-01-24T18:14:03.516Z,51.07
2019-01-24T18:16:33.879Z,51.23
2019-01-24T18:19:04.729Z,50.40
2019-01-24T18:21:35.085Z,49.10
2019-01-24T18:24:05.849Z,51.53
2019-01-24T18:26:36.455Z,49.10
2019-01-24T18:29:07.507Z,45.95
2019-01-24T18:31:38.115Z,46.73
2019-01-24T18:34:17.811Z,50.47
2019-01-24T18:36:54.884Z,49.58
2019-01-24T18:39:25.640Z,46.47
2019-01-24T18:41:56.237Z,43.33
2019-01-24T18:44:26.658Z,46.23
2019-01-24T18:46:57.188Z,46.93
2019-01-24T18:49:27.872Z,49.00
2019-01-24T18:51:58.545Z,47.63
2019-01-24T18:54:29.309Z,47.30
2019-01-24T18:56:59.930Z,44.60
2019-01-24T18:59:46.279Z,45.67
2019-01-24T19:02:17.043Z,46.80
2019-01-24T19:04:47.527Z,48.00
2019-01-24T19:07:18.111Z,45.13
2019-01-24T19:09:49.250Z,50.20
2019-01-24T19:12:19.894Z,49.93
2019-01-24T19:14:50.494Z,46.60
2019-01-24T19:17:21.129Z,46.13
2019-01-24T19:19:52.243Z,46.67
2019-01-24T19:22:22.921Z,49.80
2019-01-24T19:24:53.527Z,51.80
2019-01-24T19:27:24.159Z,46.53
2019-01-24T19:29:54.758Z,50.10
2019-01-24T19:32:26.235Z,47.50
2019-01-24T19:37:47.142Z,43.00
2019-01-24T19:40:22.006Z,46.13
2019-01-24T19:42:52.667Z,44.57
2019-01-24T19:45:24.811Z,48.97
2019-01-24T19:47:55.446Z,42.43
2019-01-24T19:50:28.243Z,49.43
2019-01-24T19:52:59.254Z,47.47
2019-01-24T19:55:29.862Z,43.77
2019-01-24T19:58:00.342Z,42.73
2019-01-24T20:00:32.516Z,47.17
2019-01-24T20:03:03.399Z,48.17
2019-01-24T20:05:34.079Z,45.07
2019-01-24T20:08:04.678Z,43.93
2019-01-24T20:10:35.332Z,42.60
2019-01-24T20:13:12.889Z,45.98
2019-01-24T20:15:43.556Z,47.17
2019-01-24T20:18:14.842Z,45.00
2019-01-24T20:20:45.470Z,46.07
2019-01-24T20:23:19.862Z,47.13
2019-01-24T20:25:50.629Z,38.90
2019-01-24T20:28:21.332Z,48.85
2019-01-24T20:30:52.069Z,42.23
2019-01-24T20:33:22.786Z,48.07
2019-01-24T20:35:57.578Z,48.43
2019-01-24T20:38:29.027Z,41.83
2019-01-24T20:40:59.682Z,49.43
2019-01-24T20:43:35.495Z,47.37
2019-01-24T20:46:07.485Z,46.00
2019-01-24T20:48:41.032Z,44.67
2019-01-24T20:51:11.543Z,45.80
2019-01-24T20:53:43.474Z,44.10
2019-01-24T20:56:14.196Z,45.90
2019-01-24T20:58:44.905Z,41.93
2019-01-24T21:01:23.583Z,47.78
2019-01-24T21:03:55.523Z,42.53
2019-01-24T21:06:28.355Z,42.97
2019-01-24T21:08:58.817Z,47.50
2019-01-24T21:11:29.452Z,41.40
2019-01-24T21:14:00.541Z,41.97
2019-01-24T21:16:31.774Z,43.30
2019-01-24T21:19:02.475Z,41.97
2019-01-24T21:21:33.042Z,42.33
2019-01-24T21:24:03.731Z,41.97
2019-01-24T21:26:34.318Z,42.87
2019-01-24T21:29:05.503Z,38.87
2019-01-24T21:31:37.350Z,40.53
2019-01-24T21:34:08.054Z,43.40
2019-01-24T21:36:39.807Z,44.23
2019-01-24T21:39:11.059Z,44.60
2019-01-24T21:41:41.788Z,44.80
2019-01-24T21:44:12.294Z,44.43
2019-01-24T21:46:43.026Z,45.63
2019-01-24T21:49:13.797Z,44.80
2019-01-24T21:51:44.307Z,42.33
2019-01-24T21:54:14.818Z,39.70
2019-01-24T21:56:45.376Z,39.95
2019-01-24T21:59:15.976Z,40.27
2019-01-24T22:01:46.530Z,45.10
2019-01-24T22:04:19.397Z,43.52
2019-01-24T22:06:49.989Z,44.73
2019-01-24T22:09:21.890Z,44.77
2019-01-24T22:11:58.888Z,44.40
2019-01-24T22:14:29.416Z,42.67
2019-01-24T22:17:00.113Z,44.67
2019-01-24T22:19:30.843Z,43.17
2019-01-24T22:22:01.519Z,40.77
2019-01-24T22:24:32.345Z,43.10
2019-01-24T22:27:03.017Z,40.20
2019-01-24T22:29:33.747Z,44.63
2019-01-24T22:32:04.725Z,41.60
2019-01-24T22:34:35.270Z,44.83
2019-01-24T22:37:07.420Z,43.83
2019-01-24T22:39:47.601Z,45.63
2019-01-24T22:42:18.400Z,44.55
2019-01-24T22:44:49.068Z,45.17
2019-01-24T22:47:19.865Z,45.28
2019-01-24T22:49:50.728Z,46.87
2019-01-24T22:52:21.593Z,43.50
2019-01-24T22:54:52.191Z,44.13
2019-01-24T22:57:22.609Z,44.50
2019-01-24T22:59:52.988Z,44.43
2019-01-24T23:02:28.317Z,44.87
2019-01-24T23:04:58.691Z,40.33
2019-01-24T23:07:29.065Z,43.83
2019-01-24T23:09:59.441Z,46.33
2019-01-24T23:12:29.844Z,44.23
2019-01-24T23:15:00.254Z,41.57
2019-01-24T23:17:30.709Z,43.53
2019-01-24T23:20:01.116Z,45.60
2019-01-24T23:22:31.534Z,43.67
2019-01-24T23:25:05.413Z,42.77
2019-01-24T23:27:35.781Z,41.47
2019-01-24T23:30:08.360Z,44.80
2019-01-24T23:32:38.862Z,41.98
2019-01-24T23:35:12.579Z,37.98
2019-01-24T23:38:00.297Z,38.90
2019-01-24T23:40:30.584Z,42.70
2019-01-24T23:43:00.952Z,45.48
2019-01-24T23:45:31.382Z,44.10
2019-01-24T23:48:01.730Z,42.63
2019-01-24T23:50:32.047Z,43.20
2019-01-24T23:53:02.409Z,44.20
2019-01-24T23:55:33.475Z,38.53
2019-01-24T23:58:04.000Z,40.87
